African Highway — 3EOD8 — position and weather

sailwx.info

Track history (hours):
 
Tides and Currents Weather Stations Pressure Air Temp Water Temp Dewpoint Dewpoint Depression Visibility Wind Speed Wind Dir Waves Ship Positions

African Highway

Last reported at 2016-Sep-28 03:21 UTC. Time now 2016-Sep-28 22:13 UTC.
Position N 54°02' E 004°28'.

Length 154.5 m; beam 27.6 m.

Type: Ship. MMSI: 353633000.

Date/timePositionNaut miles runAvg speedWind from/ knotsBaromVisibWave heightAir tempDewpointWater temp
2016-Sep-28 03:21N 54°02' E 004°28'7 8.4
2016-Sep-28 02:31N 54°03' E 004°39'9 8.8
2016-Sep-28 01:33N 54°04' E 004°54'18 9.0
2016-Sep-27 23:33N 54°06' E 005°24'35 8.8
2016-Sep-27 19:33N 53°46' E 006°14'43 8.1
2016-Sep-27 14:16N 53°20' E 007°11'0 0.0
2016-Sep-27 13:28N 53°20' E 007°11'0 0.0
2016-Sep-27 10:34N 53°20' E 007°11'0 0.0
2016-Sep-27 00:30N 53°20' E 007°11'0 0.0
2016-Sep-26 20:33N 53°20' E 007°11'0 0.0
2016-Sep-26 19:33N 53°20' E 007°11'4310.8
2016-Sep-26 15:33N 53°38' E 006°04'2813.8
2016-Sep-26 13:33N 53°53' E 005°25'16414.5
2016-Sep-26 02:16N 53°36' E 000°49'1115.0
2016-Sep-26 01:33N 53°33' E 000°31'1312.9
2016-Sep-26 00:33N 53°33' E 000°10'9 2.9
2016-Sep-25 21:33N 53°35' W 000°04'0 0.0
2016-Sep-25 17:30N 53°35' W 000°04'0 0.0
2016-Sep-25 16:33N 53°35' W 000°04'0 0.0
2016-Sep-25 15:33N 53°35' W 000°04'0 0.0
2016-Sep-25 14:33N 53°35' W 000°04'0 0.0
2016-Sep-25 12:33N 53°35' W 000°04'0 0.0
2016-Sep-25 11:33N 53°35' W 000°04'0 0.0
2016-Sep-25 10:33N 53°35' W 000°04'0 0.0
2016-Sep-25 09:33N 53°35' W 000°04'0 0.0
2016-Sep-25 07:33N 53°35' W 000°04'0 0.0
2016-Sep-25 04:33N 53°35' W 000°04'0 0.0
2016-Sep-25 00:33N 53°35' W 000°04'8 3.8
2016-Sep-24 22:33N 53°34' E 000°08'9 9.1
2016-Sep-24 21:33N 53°33' E 000°24'20 9.6
2016-Sep-24 19:27N 53°36' E 000°57'2 1.7
2016-Sep-24 18:32N 53°37' E 000°55'9 9.0
2016-Sep-24 17:33N 53°32' E 000°42'8 8.4
2016-Sep-24 16:33N 53°36' E 000°54'136 9.7
2016-Sep-24 02:32N 54°03' E 004°40'10 9.9
2016-Sep-24 01:33N 54°04' E 004°57'10 9.8
2016-Sep-24 00:33N 54°06' E 005°13'46 9.2
2016-Sep-23 19:33N 53°40' E 006°17'2613.2
2016-Sep-23 17:33N 53°26' E 006°55'1110.7
2016-Sep-23 16:34N 53°20' E 007°10'1 1.2
2016-Sep-23 15:33N 53°20' E 007°12'0 0.1
2016-Sep-23 13:33N 53°21' E 007°12'0 0.0
2016-Sep-23 09:30N 53°21' E 007°12'0 0.0
2016-Sep-23 06:33N 53°21' E 007°12'0 0.0
2016-Sep-23 04:33N 53°21' E 007°12'0 0.0
2016-Sep-23 03:33N 53°21' E 007°12'0 0.0
2016-Sep-23 02:33N 53°21' E 007°12'0 0.0
2016-Sep-23 01:33N 53°21' E 007°12'0 0.0
2016-Sep-23 00:30N 53°21' E 007°12'0 0.0
2016-Sep-22 23:33N 53°21' E 007°12'0 0.0
2016-Sep-22 20:33N 53°21' E 007°12'48 6.0
2016-Sep-22 12:34N 53°39' E 005°57'14415.6
2016-Sep-22 03:22N 52°11' E 002°49'4014.2
2016-Sep-22 00:33N 51°43' E 002°03'1313.3
2016-Sep-21 23:33N 51°34' E 001°46'1312.6
2016-Sep-21 22:33N 51°27' E 001°30'28 9.3
2016-Sep-21 19:31N 51°26' E 000°44'0 0.0
2016-Sep-21 16:28N 51°26' E 000°44'28 4.1
2016-Sep-21 09:33N 51°26' E 001°30'1110.7
2016-Sep-21 08:33N 51°32' E 001°43'21014.0
2016-Sep-20 17:33N 53°47' E 006°10'4013.5
2016-Sep-20 14:33N 53°20' E 007°00'7 6.7
2016-Sep-20 13:33N 53°20' E 007°11'0 0.2
2016-Sep-20 10:32N 53°21' E 007°12'0 0.0
2016-Sep-20 08:29N 53°21' E 007°12'0 0.0
2016-Sep-20 07:32N 53°21' E 007°12'0 0.0
2016-Sep-20 06:32N 53°21' E 007°12'0 0.0
2016-Sep-20 02:29N 53°21' E 007°12'0 0.0
2016-Sep-19 23:32N 53°21' E 007°12'0 0.0
2016-Sep-19 19:32N 53°21' E 007°12'0 0.0
2016-Sep-19 18:32N 53°21' E 007°12'0 0.0
2016-Sep-19 16:26N 53°21' E 007°12'0 0.0
2016-Sep-19 14:32N 53°21' E 007°12'0 0.0
2016-Sep-19 13:32N 53°21' E 007°12'0 0.0
2016-Sep-19 12:32N 53°21' E 007°12'0 0.0
2016-Sep-19 11:32N 53°21' E 007°12'0 0.0
2016-Sep-19 09:32N 53°21' E 007°12'0 0.0
2016-Sep-19 07:32N 53°21' E 007°12'0 0.0
2016-Sep-19 06:29N 53°21' E 007°12'0 0.0
2016-Sep-19 03:32N 53°21' E 007°12'0 0.0
2016-Sep-19 02:32N 53°21' E 007°12'1 0.6
2016-Sep-19 00:33N 53°20' E 007°10'6112.1
2016-Sep-18 19:33N 53°50' E 005°41'5714.1
2016-Sep-18 15:33N 53°58' E 004°06'  
Track history (hours):
 
Tides and Currents Weather Stations Pressure Air Temp Water Temp Dewpoint Dewpoint Depression Visibility Wind Speed Wind Dir Waves Ship Positions

African Highway

Last reported at 2016-Sep-28 03:21 UTC. Time now 2016-Sep-28 22:13 UTC.
Position N 54°02' E 004°28'.

Length 154.5 m; beam 27.6 m.

Type: Ship. MMSI: 353633000.

Date/timePositionNaut miles runAvg speedWind from/ knotsBaromVisibWave heightAir tempDewpointWater temp
2016-Sep-28 03:21N 54°02' E 004°28'7 8.4
2016-Sep-28 02:31N 54°03' E 004°39'9 8.8
2016-Sep-28 01:33N 54°04' E 004°54'18 9.0
2016-Sep-27 23:33N 54°06' E 005°24'35 8.8
2016-Sep-27 19:33N 53°46' E 006°14'43 8.1
2016-Sep-27 14:16N 53°20' E 007°11'0 0.0
2016-Sep-27 13:28N 53°20' E 007°11'0 0.0
2016-Sep-27 10:34N 53°20' E 007°11'0 0.0
2016-Sep-27 00:30N 53°20' E 007°11'0 0.0
2016-Sep-26 20:33N 53°20' E 007°11'0 0.0
2016-Sep-26 19:33N 53°20' E 007°11'4310.8
2016-Sep-26 15:33N 53°38' E 006°04'2813.8
2016-Sep-26 13:33N 53°53' E 005°25'16414.5
2016-Sep-26 02:16N 53°36' E 000°49'1115.0
2016-Sep-26 01:33N 53°33' E 000°31'1312.9
2016-Sep-26 00:33N 53°33' E 000°10'9 2.9
2016-Sep-25 21:33N 53°35' W 000°04'0 0.0
2016-Sep-25 17:30N 53°35' W 000°04'0 0.0
2016-Sep-25 16:33N 53°35' W 000°04'0 0.0
2016-Sep-25 15:33N 53°35' W 000°04'0 0.0
2016-Sep-25 14:33N 53°35' W 000°04'0 0.0
2016-Sep-25 12:33N 53°35' W 000°04'0 0.0
2016-Sep-25 11:33N 53°35' W 000°04'0 0.0
2016-Sep-25 10:33N 53°35' W 000°04'0 0.0
2016-Sep-25 09:33N 53°35' W 000°04'0 0.0
2016-Sep-25 07:33N 53°35' W 000°04'0 0.0
2016-Sep-25 04:33N 53°35' W 000°04'0 0.0
2016-Sep-25 00:33N 53°35' W 000°04'8 3.8
2016-Sep-24 22:33N 53°34' E 000°08'9 9.1
2016-Sep-24 21:33N 53°33' E 000°24'20 9.6
2016-Sep-24 19:27N 53°36' E 000°57'2 1.7
2016-Sep-24 18:32N 53°37' E 000°55'9 9.0
2016-Sep-24 17:33N 53°32' E 000°42'8 8.4
2016-Sep-24 16:33N 53°36' E 000°54'136 9.7
2016-Sep-24 02:32N 54°03' E 004°40'10 9.9
2016-Sep-24 01:33N 54°04' E 004°57'10 9.8
2016-Sep-24 00:33N 54°06' E 005°13'46 9.2
2016-Sep-23 19:33N 53°40' E 006°17'2613.2
2016-Sep-23 17:33N 53°26' E 006°55'1110.7
2016-Sep-23 16:34N 53°20' E 007°10'1 1.2
2016-Sep-23 15:33N 53°20' E 007°12'0 0.1
2016-Sep-23 13:33N 53°21' E 007°12'0 0.0
2016-Sep-23 09:30N 53°21' E 007°12'0 0.0
2016-Sep-23 06:33N 53°21' E 007°12'0 0.0
2016-Sep-23 04:33N 53°21' E 007°12'0 0.0
2016-Sep-23 03:33N 53°21' E 007°12'0 0.0
2016-Sep-23 02:33N 53°21' E 007°12'0 0.0
2016-Sep-23 01:33N 53°21' E 007°12'0 0.0
2016-Sep-23 00:30N 53°21' E 007°12'0 0.0
2016-Sep-22 23:33N 53°21' E 007°12'0 0.0
2016-Sep-22 20:33N 53°21' E 007°12'48 6.0
2016-Sep-22 12:34N 53°39' E 005°57'14415.6
2016-Sep-22 03:22N 52°11' E 002°49'4014.2
2016-Sep-22 00:33N 51°43' E 002°03'1313.3
2016-Sep-21 23:33N 51°34' E 001°46'1312.6
2016-Sep-21 22:33N 51°27' E 001°30'28 9.3
2016-Sep-21 19:31N 51°26' E 000°44'0 0.0
2016-Sep-21 16:28N 51°26' E 000°44'28 4.1
2016-Sep-21 09:33N 51°26' E 001°30'1110.7
2016-Sep-21 08:33N 51°32' E 001°43'21014.0
2016-Sep-20 17:33N 53°47' E 006°10'4013.5
2016-Sep-20 14:33N 53°20' E 007°00'7 6.7
2016-Sep-20 13:33N 53°20' E 007°11'0 0.2
2016-Sep-20 10:32N 53°21' E 007°12'0 0.0
2016-Sep-20 08:29N 53°21' E 007°12'0 0.0
2016-Sep-20 07:32N 53°21' E 007°12'0 0.0
2016-Sep-20 06:32N 53°21' E 007°12'0 0.0
2016-Sep-20 02:29N 53°21' E 007°12'0 0.0
2016-Sep-19 23:32N 53°21' E 007°12'0 0.0
2016-Sep-19 19:32N 53°21' E 007°12'0 0.0
2016-Sep-19 18:32N 53°21' E 007°12'0 0.0
2016-Sep-19 16:26N 53°21' E 007°12'0 0.0
2016-Sep-19 14:32N 53°21' E 007°12'0 0.0
2016-Sep-19 13:32N 53°21' E 007°12'0 0.0
2016-Sep-19 12:32N 53°21' E 007°12'0 0.0
2016-Sep-19 11:32N 53°21' E 007°12'0 0.0
2016-Sep-19 09:32N 53°21' E 007°12'0 0.0
2016-Sep-19 07:32N 53°21' E 007°12'0 0.0
2016-Sep-19 06:29N 53°21' E 007°12'0 0.0
2016-Sep-19 03:32N 53°21' E 007°12'0 0.0
2016-Sep-19 02:32N 53°21' E 007°12'1 0.6
2016-Sep-19 00:33N 53°20' E 007°10'6112.1
2016-Sep-18 19:33N 53°50' E 005°41'5714.1
2016-Sep-18 15:33N 53°58' E 004°06'  

Dump ship's entire track history